Leigh-on-Sea, United Kingdom
Current Conditions -  °F | °C
As of 6:20 PM on Monday 22 Dec 2014 (Local Time) from EGMC Reporting Station
Scattered Clouds Scattered Clouds  
Wind Chill: 55°   Ceiling: Unl
Heat Index: 55°   Visibility: 6mi
Dew Point: 45°   Wind: 22mph
Humidity: 67%   Direction: 240°WSW
Pressure: 30.03"   Gusts: 33mph
Location:  51.54°N, 0.66°E
Report Text: EGMC 221820Z 24019G29KT 9999 FEW031 SCT037 13/07 Q1017
Loading
Personal Weather Stations






























Interactive Weather Map New forecast layout! Learn more

10-Day Weather Forecast

Advertisements
Track Severe Weather on mobile